Time;durP1;ratioP1;P1;durP2;ratioP2;P2;SDS_P1;SDS_P2;PMS_P1;PMS_P2;Temp;Humidity;BMP_temperature;BMP_pressure;BME280_temperature;BME280_humidity;BME280_pressure;Samples;Min_cycle;Max_cycle;Signal;HPM_P1;HPM_P2
2023/01/30 00:00:52;;;;;;;2.63;2.03;;;27.20;61.40;;;;;;4131247;28;20049;-43
2023/01/30 00:03:14;;;;;;;4.60;2.40;;;27.00;60.40;;;;;;4132698;28;20435;-44
2023/01/30 00:05:37;;;;;;;3.63;2.38;;;26.90;59.50;;;;;;4129744;28;20129;-44
2023/01/30 00:07:59;;;;;;;3.20;2.20;;;26.70;59.40;;;;;;4138132;28;20042;-43
2023/01/30 00:10:21;;;;;;;2.92;2.20;;;26.60;60.20;;;;;;4135876;28;20057;-40
2023/01/30 00:12:44;;;;;;;2.90;2.45;;;26.50;60.50;;;;;;4131884;28;20145;-42
2023/01/30 00:15:07;;;;;;;2.83;2.30;;;26.40;60.90;;;;;;4135118;28;20037;-42
2023/01/30 00:17:30;;;;;;;3.58;2.53;;;26.30;59.30;;;;;;4132357;28;20265;-43
2023/01/30 00:19:52;;;;;;;3.05;2.50;;;26.10;60.50;;;;;;4135707;28;20556;-41
2023/01/30 00:22:14;;;;;;;3.10;2.40;;;26.00;59.80;;;;;;4137253;28;20111;-41
2023/01/30 00:24:37;;;;;;;3.00;2.50;;;25.90;59.50;;;;;;4135835;28;20041;-41
2023/01/30 00:26:59;;;;;;;2.97;2.47;;;25.80;60.50;;;;;;4138842;28;20044;-44
2023/01/30 00:29:21;;;;;;;2.42;2.10;;;25.70;59.70;;;;;;4136490;28;20038;-41
2023/01/30 00:31:44;;;;;;;2.80;2.15;;;25.60;59.90;;;;;;4132958;28;20125;-43
2023/01/30 00:34:06;;;;;;;2.15;1.90;;;25.50;59.30;;;;;;4139485;28;20045;-40
2023/01/30 00:36:29;;;;;;;2.38;1.92;;;25.30;59.90;;;;;;4136633;28;20092;-41
2023/01/30 00:38:51;;;;;;;2.50;2.00;;;25.20;59.70;;;;;;4133356;28;20477;-40
2023/01/30 00:41:14;;;;;;;2.30;1.90;;;25.10;59.70;;;;;;4135960;28;20053;-41
2023/01/30 00:49:17;;;;;;;2.25;1.60;;;24.80;60.60;;;;;;4132820;28;20057;-41
2023/01/30 00:51:40;;;;;;;2.55;1.80;;;24.70;60.10;;;;;;4136192;28;20041;-45
2023/01/30 00:54:03;;;;;;;3.30;1.73;;;24.60;60.00;;;;;;4132210;28;20446;-40
2023/01/30 00:56:25;;;;;;;2.60;1.80;;;24.50;59.60;;;;;;4137755;28;20052;-42
2023/01/30 00:58:48;;;;;;;3.40;1.90;;;24.40;59.50;;;;;;4138450;28;20045;-40
2023/01/30 01:01:10;;;;;;;1.90;1.65;;;24.30;59.70;;;;;;4137763;28;20041;-41
2023/01/30 01:03:32;;;;;;;2.67;1.80;;;24.30;59.70;;;;;;4128957;28;20050;-40
2023/01/30 01:05:55;;;;;;;2.58;1.90;;;24.20;60.20;;;;;;4135233;28;20037;-42
2023/01/30 01:08:18;;;;;;;2.10;1.63;;;24.10;60.10;;;;;;4137149;28;20073;-43
2023/01/30 01:10:41;;;;;;;2.67;1.80;;;24.00;60.00;;;;;;4133142;28;20119;-43
2023/01/30 01:13:05;;;;;;;2.15;1.70;;;24.00;60.20;;;;;;4130991;28;20143;-44
2023/01/30 01:15:29;;;;;;;2.45;1.88;;;23.90;60.30;;;;;;4130501;28;20525;-41
2023/01/30 01:17:51;;;;;;;1.67;1.58;;;23.80;60.20;;;;;;4133515;28;20805;-46
2023/01/30 01:20:15;;;;;;;1.88;1.48;;;23.70;60.60;;;;;;4132436;28;20524;-43
2023/01/30 01:22:37;;;;;;;1.45;1.25;;;23.60;60.50;;;;;;4135333;28;20045;-46
2023/01/30 01:24:59;;;;;;;1.50;1.30;;;23.60;60.50;;;;;;4137391;28;20038;-42
2023/01/30 01:27:22;;;;;;;1.67;1.52;;;23.50;60.60;;;;;;4131821;28;20056;-43
2023/01/30 01:29:44;;;;;;;1.80;1.50;;;23.50;60.50;;;;;;4132146;28;20108;-42
2023/01/30 01:32:06;;;;;;;1.40;1.30;;;23.40;60.30;;;;;;4135413;28;20081;-40
2023/01/30 01:34:29;;;;;;;1.75;1.52;;;23.40;60.50;;;;;;4137747;28;20049;-42
2023/01/30 01:36:51;;;;;;;3.30;1.55;;;23.30;60.90;;;;;;4135432;28;20076;-45
2023/01/30 01:39:14;;;;;;;1.63;1.50;;;23.30;60.50;;;;;;4141650;28;20061;-45
2023/01/30 01:41:36;;;;;;;1.58;1.48;;;23.20;60.60;;;;;;4141499;28;20049;-41
2023/01/30 01:44:10;;;;;;;1.98;1.77;;;23.20;60.30;;;;;;4137292;28;20502;-41
2023/01/30 01:46:42;;;;;;;2.85;2.38;;;23.20;60.50;;;;;;4135052;28;20132;-42
2023/01/30 01:49:19;;;;;;;7.22;6.18;;;23.10;60.40;;;;;;4136881;28;20424;-44
2023/01/30 01:51:52;;;;;;;10.38;8.73;;;23.00;60.60;;;;;;4134225;28;20080;-40
2023/01/30 01:54:37;;;;;;;10.37;8.73;;;23.00;61.00;;;;;;4136245;28;20069;-43
2023/01/30 01:57:06;;;;;;;9.40;8.32;;;22.90;61.00;;;;;;4120315;28;20049;-42
2023/01/30 01:59:43;;;;;;;11.43;8.15;;;22.90;61.20;;;;;;4130063;28;20034;-39
2023/01/30 02:02:10;;;;;;;9.05;6.90;;;22.80;61.40;;;;;;4137605;28;20053;-41
2023/01/30 02:07:17;;;;;;;7.28;5.75;;;22.70;61.20;;;;;;4141680;28;20557;-39
2023/01/30 02:09:40;;;;;;;6.70;5.25;;;22.70;61.20;;;;;;4137025;28;20041;-40
2023/01/30 02:12:03;;;;;;;5.82;4.25;;;22.60;61.10;;;;;;4135198;28;20544;-39
2023/01/30 02:14:26;;;;;;;4.50;3.60;;;22.60;61.10;;;;;;4139292;28;20040;-41
2023/01/30 02:16:48;;;;;;;4.68;3.28;;;22.50;61.20;;;;;;4133410;28;20046;-39
2023/01/30 02:19:48;;;;;;;3.28;2.75;;;22.50;61.20;;;;;;4133127;28;20557;-42
2023/01/30 02:22:41;;;;;;;4.38;2.83;;;22.50;61.40;;;;;;4123250;28;20054;-40
2023/01/30 02:25:24;;;;;;;3.10;2.22;;;22.40;61.40;;;;;;4141616;28;20497;-43
2023/01/30 02:28:11;;;;;;;2.67;2.10;;;22.40;61.40;;;;;;4139758;28;20038;-42
2023/01/30 02:30:45;;;;;;;2.63;2.10;;;22.40;61.70;;;;;;4139593;28;20045;-41
2023/01/30 02:33:30;;;;;;;2.67;2.05;;;22.40;61.80;;;;;;4139472;28;20041;-43
2023/01/30 02:36:04;;;;;;;2.33;1.98;;;22.30;62.00;;;;;;4142653;28;20126;-41
2023/01/30 02:38:35;;;;;;;2.40;1.92;;;22.30;62.10;;;;;;4133316;28;20053;-42
2023/01/30 02:41:20;;;;;;;2.20;1.80;;;22.20;62.10;;;;;;4138757;28;20433;-40
2023/01/30 02:44:05;;;;;;;2.55;2.00;;;22.30;62.10;;;;;;4139213;28;20046;-41
2023/01/30 02:46:52;;;;;;;1.65;1.48;;;22.20;62.00;;;;;;4134409;28;20057;-39
2023/01/30 02:49:21;;;;;;;2.72;1.88;;;22.20;62.30;;;;;;4138002;28;20042;-41
2023/01/30 02:51:46;;;;;;;2.08;1.55;;;22.20;62.40;;;;;;4140536;28;20042;-41
2023/01/30 02:54:12;;;;;;;1.83;1.70;;;22.10;62.20;;;;;;4129139;28;20037;-42
2023/01/30 02:56:49;;;;;;;1.58;1.45;;;22.10;62.50;;;;;;4134044;28;20033;-43
2023/01/30 02:59:14;;;;;;;1.60;1.40;;;22.10;62.60;;;;;;4132848;28;20037;-44
2023/01/30 03:02:18;;;;;;;2.13;1.80;;;22.10;62.50;;;;;;4137751;28;20041;-40
2023/01/30 03:05:16;;;;;;;2.60;1.90;;;22.10;62.60;;;;;;4102729;28;20223;-43
2023/01/30 03:08:04;;;;;;;1.70;1.60;;;22.10;62.90;;;;;;4099047;28;20030;-43
2023/01/30 03:10:37;;;;;;;1.95;1.70;;;22.10;62.90;;;;;;4127071;28;20038;-40
2023/01/30 03:13:14;;;;;;;1.75;1.55;;;22.10;62.90;;;;;;4130797;28;20027;-41
2023/01/30 03:15:50;;;;;;;1.77;1.50;;;22.00;62.80;;;;;;4125397;28;20038;-41
2023/01/30 03:18:13;;;;;;;2.28;1.83;;;22.00;63.10;;;;;;4125086;28;20053;-42
2023/01/30 03:20:40;;;;;;;2.10;1.90;;;22.00;63.10;;;;;;4119768;28;20524;-41
2023/01/30 03:23:02;;;;;;;2.50;2.00;;;22.00;63.20;;;;;;4125528;28;20700;-46
2023/01/30 03:25:25;;;;;;;1.98;1.73;;;22.00;63.00;;;;;;4126726;28;20036;-48
2023/01/30 03:27:50;;;;;;;3.38;1.90;;;22.00;62.90;;;;;;4128691;28;20054;-42
2023/01/30 03:30:13;;;;;;;1.60;1.50;;;22.00;63.00;;;;;;4125691;28;20078;-41
2023/01/30 03:32:38;;;;;;;3.05;1.77;;;22.00;63.20;;;;;;4134324;28;20112;-47
2023/01/30 03:35:00;;;;;;;4.75;1.70;;;22.00;63.50;;;;;;4127779;28;20118;-44
2023/01/30 03:37:23;;;;;;;3.20;2.05;;;22.00;64.10;;;;;;4133396;28;20034;-43
2023/01/30 03:39:45;;;;;;;3.50;2.08;;;21.90;63.10;;;;;;4135496;28;20041;-48
2023/01/30 03:42:08;;;;;;;2.65;2.00;;;21.90;63.70;;;;;;4133722;28;20355;-48
2023/01/30 03:44:30;;;;;;;2.10;1.55;;;21.90;63.50;;;;;;4135141;28;20434;-45
2023/01/30 03:46:53;;;;;;;2.13;1.80;;;21.90;63.80;;;;;;4134864;28;20131;-44
2023/01/30 03:49:15;;;;;;;2.95;2.13;;;21.90;63.80;;;;;;4134569;28;20042;-45
2023/01/30 03:51:38;;;;;;;2.10;1.77;;;21.90;63.70;;;;;;4124372;28;20038;-44
2023/01/30 03:54:00;;;;;;;2.60;2.00;;;21.90;63.70;;;;;;4129505;28;20064;-47
2023/01/30 03:56:23;;;;;;;2.05;1.83;;;21.90;63.50;;;;;;4124891;28;20113;-47
2023/01/30 03:58:45;;;;;;;2.35;1.92;;;21.90;63.10;;;;;;4125168;28;20281;-46
2023/01/30 04:01:07;;;;;;;2.53;1.58;;;21.90;63.20;;;;;;4130033;28;20136;-43
2023/01/30 04:03:30;;;;;;;3.78;1.98;;;21.90;64.20;;;;;;4132384;28;20041;-47
2023/01/30 04:05:52;;;;;;;4.13;2.08;;;22.00;65.90;;;;;;4129696;28;20132;-48
2023/01/30 04:08:15;;;;;;;2.22;1.60;;;22.30;66.30;;;;;;4135269;28;20788;-44
2023/01/30 04:10:37;;;;;;;3.42;1.88;;;22.50;66.40;;;;;;4129800;28;20037;-44
2023/01/30 04:12:59;;;;;;;2.05;1.40;;;22.70;66.20;;;;;;4128419;28;20049;-45
2023/01/30 04:15:22;;;;;;;2.58;1.45;;;23.00;66.50;;;;;;4134207;28;20033;-44
2023/01/30 04:17:46;;;;;;;2.20;1.88;;;23.20;66.60;;;;;;4130259;28;20156;-44
2023/01/30 04:20:10;;;;;;;7.63;4.43;;;23.50;66.80;;;;;;4127807;28;20406;-43
2023/01/30 04:22:32;;;;;;;9.80;5.90;;;23.70;67.00;;;;;;4133871;28;20054;-41
2023/01/30 04:24:54;;;;;;;7.13;6.00;;;24.00;66.90;;;;;;4128252;28;20068;-45
2023/01/30 04:27:17;;;;;;;9.10;6.78;;;24.10;66.90;;;;;;4127369;28;20069;-43
2023/01/30 04:29:39;;;;;;;7.57;6.40;;;24.30;67.10;;;;;;4132722;28;20492;-43
2023/01/30 04:32:02;;;;;;;9.27;7.40;;;24.40;66.90;;;;;;4129975;28;20445;-43
2023/01/30 04:34:24;;;;;;;10.38;8.73;;;24.50;66.90;;;;;;4128626;28;20038;-45
2023/01/30 04:36:47;;;;;;;10.27;7.13;;;24.60;67.10;;;;;;4127563;28;20437;-44
2023/01/30 04:39:09;;;;;;;10.20;8.02;;;24.70;67.00;;;;;;4132180;28;20564;-46
2023/01/30 04:41:31;;;;;;;9.13;7.93;;;24.80;67.30;;;;;;4128163;28;20122;-44
2023/01/30 04:43:54;;;;;;;8.82;7.60;;;24.80;67.10;;;;;;4116330;28;20034;-43
2023/01/30 04:46:16;;;;;;;8.43;7.63;;;24.90;67.10;;;;;;4130372;28;20045;-42
2023/01/30 04:48:39;;;;;;;9.88;8.00;;;25.00;67.20;;;;;;4132138;28;20034;-40
2023/01/30 04:51:01;;;;;;;7.00;6.30;;;25.10;67.20;;;;;;4129921;28;20069;-43
2023/01/30 04:53:24;;;;;;;9.05;6.60;;;25.10;67.30;;;;;;4119247;28;20048;-42
2023/01/30 04:55:47;;;;;;;8.10;6.53;;;25.20;67.50;;;;;;4129834;28;20042;-42
2023/01/30 04:58:10;;;;;;;8.77;5.97;;;25.20;67.50;;;;;;4131184;28;20276;-42
2023/01/30 05:00:32;;;;;;;6.97;6.15;;;25.30;67.50;;;;;;4126914;28;20870;-40
2023/01/30 05:02:55;;;;;;;7.60;5.53;;;25.40;67.50;;;;;;4132049;28;20049;-40
2023/01/30 05:05:17;;;;;;;6.47;5.60;;;25.40;67.60;;;;;;4128461;28;20065;-44
2023/01/30 05:07:40;;;;;;;7.72;4.85;;;25.50;67.90;;;;;;4126418;28;20480;-46
2023/01/30 05:10:02;;;;;;;4.95;4.40;;;25.50;68.20;;;;;;4127401;28;20160;-42
2023/01/30 05:12:25;;;;;;;5.78;4.45;;;25.60;68.20;;;;;;4127685;28;20119;-44
2023/01/30 05:14:47;;;;;;;7.50;4.88;;;25.60;68.30;;;;;;4127383;28;20042;-43
2023/01/30 05:17:10;;;;;;;6.50;4.68;;;25.70;68.60;;;;;;4129163;28;20654;-42
2023/01/30 05:19:32;;;;;;;8.02;3.85;;;25.70;68.80;;;;;;4130767;28;20129;-42
2023/01/30 05:21:54;;;;;;;8.75;3.83;;;25.70;68.80;;;;;;4119011;28;20475;-40
2023/01/30 05:24:17;;;;;;;7.53;3.95;;;25.80;69.00;;;;;;4132202;28;20100;-45
2023/01/30 05:26:39;;;;;;;5.63;3.83;;;25.80;69.20;;;;;;4122221;28;20500;-42
2023/01/30 05:29:02;;;;;;;6.72;3.65;;;25.90;69.40;;;;;;4134690;28;20657;-39
2023/01/30 05:31:24;;;;;;;7.25;3.70;;;25.90;69.70;;;;;;4132355;28;20038;-43
2023/01/30 05:33:50;;;;;;;4.65;2.75;;;26.00;69.70;;;;;;4134926;28;20030;-40
2023/01/30 05:36:15;;;;;;;4.22;3.10;;;26.00;69.60;;;;;;4136867;28;20049;-40
2023/01/30 05:38:38;;;;;;;3.95;2.90;;;26.10;69.60;;;;;;4132612;28;20045;-40
2023/01/30 05:41:06;;;;;;;5.05;2.47;;;26.20;69.40;;;;;;4135896;28;20042;-40
2023/01/30 05:43:29;;;;;;;4.53;2.50;;;26.20;69.20;;;;;;4136221;28;20403;-43
2023/01/30 05:45:55;;;;;;;3.50;2.10;;;26.30;69.10;;;;;;4136323;28;20161;-42
2023/01/30 05:48:18;;;;;;;3.20;2.40;;;26.40;69.20;;;;;;4127360;28;20486;-39
2023/01/30 05:50:40;;;;;;;3.67;2.08;;;26.40;69.10;;;;;;4131211;28;20527;-44
2023/01/30 05:53:02;;;;;;;4.70;2.60;;;26.40;69.00;;;;;;4129780;28;20049;-44
2023/01/30 05:55:25;;;;;;;3.22;2.25;;;26.50;69.00;;;;;;4129004;28;20041;-42
2023/01/30 05:57:47;;;;;;;5.32;2.17;;;26.50;69.20;;;;;;4128102;28;20042;-41
2023/01/30 06:00:10;;;;;;;3.35;2.10;;;26.50;69.20;;;;;;4131765;28;20038;-42
2023/01/30 06:02:33;;;;;;;3.38;1.73;;;26.50;69.30;;;;;;4131721;28;20057;-46
2023/01/30 06:04:55;;;;;;;4.18;1.80;;;26.50;69.40;;;;;;4134171;28;20429;-45
2023/01/30 06:07:17;;;;;;;6.30;2.30;;;26.50;69.50;;;;;;4128968;28;20104;-41
2023/01/30 06:09:40;;;;;;;5.45;2.00;;;26.50;69.80;;;;;;4127629;28;20062;-49
2023/01/30 06:12:02;;;;;;;3.92;1.88;;;26.60;69.20;;;;;;4128153;28;20045;-44
2023/01/30 06:14:24;;;;;;;3.10;1.75;;;26.60;69.80;;;;;;4129854;28;20404;-44
2023/01/30 06:16:47;;;;;;;3.92;1.73;;;26.60;69.70;;;;;;4126607;28;20502;-45
2023/01/30 06:19:10;;;;;;;2.65;1.50;;;26.70;69.90;;;;;;4120128;28;20042;-44
2023/01/30 06:21:32;;;;;;;3.10;1.60;;;26.70;69.90;;;;;;4131976;28;20049;-43
2023/01/30 06:23:54;;;;;;;4.45;1.52;;;26.70;69.90;;;;;;4129279;28;20116;-48
2023/01/30 06:26:17;;;;;;;12.45;2.42;;;26.80;69.80;;;;;;4133470;28;20038;-50
2023/01/30 06:28:39;;;;;;;5.57;2.08;;;26.80;70.40;;;;;;4128034;28;20415;-43
2023/01/30 06:31:02;;;;;;;5.15;1.73;;;26.80;70.30;;;;;;4131729;28;20086;-46
2023/01/30 06:33:24;;;;;;;4.32;2.25;;;26.80;70.20;;;;;;4132520;28;20490;-44
2023/01/30 06:35:50;;;;;;;4.38;1.95;;;26.90;70.30;;;;;;4131257;28;20042;-45
2023/01/30 06:38:13;;;;;;;7.50;1.75;;;26.90;70.50;;;;;;4132211;28;20088;-47
2023/01/30 06:40:35;;;;;;;3.47;1.60;;;26.90;70.70;;;;;;4131138;28;20037;-46
2023/01/30 06:42:57;;;;;;;4.88;1.65;;;26.90;70.50;;;;;;4130947;28;20046;-47
2023/01/30 06:45:20;;;;;;;3.95;1.40;;;27.00;70.50;;;;;;4129479;28;20045;-45
2023/01/30 06:47:47;;;;;;;6.90;1.83;;;27.00;70.60;;;;;;4131438;28;20050;-50
2023/01/30 06:50:09;;;;;;;7.18;1.90;;;27.00;70.80;;;;;;4133403;28;20042;-49
2023/01/30 06:52:32;;;;;;;5.70;1.45;;;27.00;71.70;;;;;;4139307;28;20492;-49
2023/01/30 06:54:54;;;;;;;5.82;1.50;;;27.00;71.00;;;;;;4140167;28;20038;-43
2023/01/30 06:57:16;;;;;;;4.95;1.58;;;27.10;70.90;;;;;;4132967;28;20042;-44
2023/01/30 06:59:39;;;;;;;3.90;1.30;;;27.10;70.70;;;;;;4134087;28;20105;-42
2023/01/30 07:02:01;;;;;;;4.35;1.50;;;27.10;70.40;;;;;;4136116;28;20100;-42
2023/01/30 07:04:24;;;;;;;1.90;1.15;;;27.10;70.30;;;;;;4139709;28;20038;-44
2023/01/30 07:06:46;;;;;;;4.32;1.40;;;27.20;70.20;;;;;;4139191;28;20223;-44
2023/01/30 07:09:09;;;;;;;3.45;1.17;;;27.20;70.10;;;;;;4137477;28;20398;-45
2023/01/30 07:11:31;;;;;;;2.78;1.10;;;27.10;70.00;;;;;;4135432;28;20121;-47
2023/01/30 07:13:53;;;;;;;6.28;1.38;;;27.20;70.10;;;;;;4131784;28;20042;-46
2023/01/30 07:16:19;;;;;;;5.13;1.15;;;27.20;70.60;;;;;;4133500;28;20054;-51
2023/01/30 07:18:41;;;;;;;2.45;1.23;;;27.20;70.90;;;;;;4133260;28;20040;-49
2023/01/30 07:21:04;;;;;;;5.82;1.20;;;27.20;71.30;;;;;;4134555;28;20493;-51
2023/01/30 07:23:26;;;;;;;2.53;1.25;;;27.20;71.30;;;;;;4131832;28;20042;-46
2023/01/30 07:25:49;;;;;;;1.90;0.95;;;27.20;71.70;;;;;;4132553;28;20026;-45
2023/01/30 07:28:11;;;;;;;1.40;0.88;;;27.20;71.50;;;;;;4132600;28;20521;-45
2023/01/30 07:30:34;;;;;;;4.55;1.40;;;27.20;72.10;;;;;;4127228;28;20129;-41
2023/01/30 07:32:58;;;;;;;3.15;0.75;;;27.20;71.10;;;;;;4130206;28;20040;-41
2023/01/30 07:35:22;;;;;;;4.35;1.20;;;27.20;72.20;;;;;;4130812;28;20038;-43
2023/01/30 07:37:47;;;;;;;;;;;27.10;71.70;;;;;;4134599;28;20042;-40
2023/01/30 07:40:11;;;;;;;3.65;1.10;;;27.00;72.10;;;;;;4116097;28;20402;-46
2023/01/30 07:42:33;;;;;;;2.85;0.75;;;27.00;72.00;;;;;;4132942;28;20152;-41
2023/01/30 07:44:55;;;;;;;2.28;0.85;;;27.00;72.50;;;;;;4133126;28;20037;-39
2023/01/30 07:47:19;;;;;;;5.85;0.80;;;27.00;72.50;;;;;;4136652;28;20050;-45
2023/01/30 07:49:41;;;;;;;2.28;0.93;;;27.00;72.40;;;;;;4134778;28;20046;-45
2023/01/30 07:52:04;;;;;;;0.88;0.45;;;27.00;72.50;;;;;;4139256;28;20096;-45
2023/01/30 07:54:26;;;;;;;1.23;0.60;;;27.00;72.40;;;;;;4137969;28;20509;-40
2023/01/30 07:56:48;;;;;;;2.50;0.85;;;27.00;72.40;;;;;;4141832;28;20056;-38
2023/01/30 07:59:11;;;;;;;1.85;0.70;;;27.00;72.30;;;;;;4134303;28;20038;-44
2023/01/30 08:01:34;;;;;;;1.17;0.60;;;27.00;72.30;;;;;;4132225;28;20057;-45
2023/01/30 08:03:56;;;;;;;4.82;1.35;;;27.00;72.30;;;;;;4138142;28;20034;-39
2023/01/30 08:06:19;;;;;;;0.95;0.70;;;27.00;72.30;;;;;;4133001;28;20042;-42
2023/01/30 08:08:42;;;;;;;2.50;0.80;;;26.90;72.20;;;;;;4135981;28;20038;-39
2023/01/30 08:11:04;;;;;;;1.55;0.60;;;26.90;72.30;;;;;;4134127;28;20116;-42
2023/01/30 08:13:27;;;;;;;3.47;0.90;;;26.90;72.10;;;;;;4139340;28;20510;-41
2023/01/30 08:15:49;;;;;;;0.75;0.38;;;26.90;72.00;;;;;;4133469;28;20073;-41
2023/01/30 08:18:12;;;;;;;1.58;1.10;;;26.90;72.00;;;;;;4130868;28;20042;-45
2023/01/30 08:20:35;;;;;;;2.47;0.77;;;26.90;72.10;;;;;;4130454;28;20038;-43
2023/01/30 08:23:00;;;;;;;1.85;1.00;;;26.90;72.20;;;;;;4132561;28;20056;-39
2023/01/30 08:25:23;;;;;;;4.43;1.00;;;26.90;72.20;;;;;;4133710;28;20509;-42
2023/01/30 08:27:46;;;;;;;2.33;0.85;;;26.90;72.90;;;;;;4130628;28;20115;-41
2023/01/30 08:30:10;;;;;;;3.08;0.80;;;26.90;72.30;;;;;;4125361;28;20097;-40
2023/01/30 08:32:32;;;;;;;2.28;0.80;;;26.90;72.20;;;;;;4128303;28;20052;-42
2023/01/30 08:34:55;;;;;;;2.37;1.07;;;26.90;72.20;;;;;;4119613;28;20121;-43
2023/01/30 08:37:17;;;;;;;3.72;0.90;;;27.00;72.20;;;;;;4136260;28;20782;-40
2023/01/30 08:39:40;;;;;;;2.40;0.80;;;26.90;72.00;;;;;;4135019;28;20777;-43
2023/01/30 08:42:02;;;;;;;2.17;0.77;;;26.90;71.70;;;;;;4130767;28;20054;-41
2023/01/30 08:44:24;;;;;;;2.70;0.90;;;26.90;71.80;;;;;;4128250;28;20040;-41
2023/01/30 08:46:47;;;;;;;2.30;0.82;;;26.90;71.80;;;;;;4127571;28;20498;-38
2023/01/30 08:49:10;;;;;;;5.75;1.08;;;26.90;71.60;;;;;;4130849;28;20515;-43
2023/01/30 08:51:33;;;;;;;2.65;1.10;;;26.90;71.60;;;;;;4124580;28;20088;-39
2023/01/30 08:53:55;;;;;;;2.67;0.98;;;27.00;71.50;;;;;;4129697;28;20505;-39
2023/01/30 08:56:18;;;;;;;2.30;0.70;;;27.00;71.50;;;;;;4132954;28;20668;-41
2023/01/30 08:58:42;;;;;;;2.95;0.70;;;27.10;71.30;;;;;;4119162;28;20057;-41
2023/01/30 09:01:06;;;;;;;2.15;0.77;;;27.10;71.30;;;;;;4133572;28;20045;-40
2023/01/30 09:03:28;;;;;;;1.98;0.73;;;27.10;71.40;;;;;;4135747;28;20049;-41
2023/01/30 09:05:56;;;;;;;3.92;1.00;;;27.10;71.30;;;;;;4132267;28;20032;-41
2023/01/30 09:08:19;;;;;;;4.05;1.10;;;27.10;71.30;;;;;;4137981;28;20050;-42
2023/01/30 09:10:41;;;;;;;3.90;0.95;;;27.10;71.20;;;;;;4134189;28;20038;-39
2023/01/30 09:13:04;;;;;;;2.03;0.80;;;27.10;71.00;;;;;;4139000;28;20037;-41
2023/01/30 09:15:26;;;;;;;4.07;1.08;;;27.10;70.90;;;;;;4134217;28;20037;-41
2023/01/30 09:17:50;;;;;;;3.65;1.02;;;27.10;70.80;;;;;;4137289;28;20034;-40
2023/01/30 09:20:13;;;;;;;2.53;0.77;;;27.10;70.70;;;;;;4138977;28;20049;-43
2023/01/30 09:22:36;;;;;;;2.28;1.10;;;27.10;70.50;;;;;;4133084;28;20156;-41
2023/01/30 09:24:58;;;;;;;3.00;0.83;;;27.10;70.40;;;;;;4140654;28;20120;-40
2023/01/30 09:27:20;;;;;;;2.88;1.00;;;27.10;70.20;;;;;;4135385;28;20405;-40
2023/01/30 09:29:43;;;;;;;4.07;1.27;;;27.10;70.30;;;;;;4131520;28;20029;-40
2023/01/30 09:32:05;;;;;;;2.25;1.00;;;27.00;70.30;;;;;;4127748;28;20052;-43
2023/01/30 09:34:28;;;;;;;3.45;1.50;;;27.00;70.20;;;;;;4128983;28;20104;-42
2023/01/30 09:36:50;;;;;;;2.88;1.58;;;27.00;70.40;;;;;;4128379;28;20053;-46
2023/01/30 09:39:12;;;;;;;1.92;1.08;;;27.00;70.30;;;;;;4130221;28;20428;-45
2023/01/30 09:42:05;;;;;;;3.33;1.33;;;27.10;70.40;;;;;;4131440;28;20422;-45
2023/01/30 09:44:34;;;;;;;2.03;1.05;;;27.00;70.30;;;;;;4127579;28;20125;-43
2023/01/30 09:47:12;;;;;;;3.85;1.52;;;27.00;70.20;;;;;;4127983;28;20145;-42
2023/01/30 09:50:11;;;;;;;3.28;1.40;;;27.00;70.30;;;;;;4124423;28;20182;-45
2023/01/30 09:52:36;;;;;;;2.70;1.10;;;27.00;70.30;;;;;;4128092;28;20046;-43
2023/01/30 09:55:26;;;;;;;4.45;1.60;;;27.00;70.20;;;;;;4129279;28;20077;-43
2023/01/30 09:57:49;;;;;;;4.13;1.80;;;27.00;70.30;;;;;;4125023;28;20065;-43
2023/01/30 10:00:28;;;;;;;3.20;1.65;;;26.90;70.10;;;;;;4131893;28;20053;-43
2023/01/30 10:03:20;;;;;;;4.82;1.70;;;26.90;70.00;;;;;;4134070;28;20077;-43
2023/01/30 10:06:04;;;;;;;3.58;1.33;;;26.90;70.50;;;;;;4138209;28;20046;-44
2023/01/30 10:08:38;;;;;;;3.92;1.65;;;26.90;70.00;;;;;;4133298;28;20045;-43
2023/01/30 10:11:28;;;;;;;5.00;2.25;;;26.90;69.80;;;;;;4133157;28;20037;-44
2023/01/30 10:13:51;;;;;;;3.33;1.80;;;26.90;69.80;;;;;;4131966;28;20116;-43
2023/01/30 10:16:27;;;;;;;6.05;1.88;;;26.90;69.80;;;;;;4140269;28;20440;-44
2023/01/30 10:19:07;;;;;;;5.75;2.20;;;26.90;69.90;;;;;;4135037;28;20045;-45
2023/01/30 10:21:42;;;;;;;4.95;2.15;;;26.90;69.20;;;;;;4141598;28;20041;-40
2023/01/30 10:24:28;;;;;;;4.10;2.00;;;26.90;69.70;;;;;;4136714;28;20084;-46
2023/01/30 10:26:52;;;;;;;6.82;2.30;;;26.90;69.70;;;;;;4143046;28;20544;-41
2023/01/30 10:29:22;;;;;;;;;;;26.80;69.60;;;;;;4139915;28;20041;-40
2023/01/30 10:32:01;;;;;;;3.67;2.20;;;26.80;69.40;;;;;;4137215;28;19914;-44
2023/01/30 10:34:45;;;;;;;4.07;2.40;;;26.80;69.30;;;;;;4136219;28;20491;-39
2023/01/30 10:37:18;;;;;;;4.72;2.50;;;26.80;69.40;;;;;;4135757;28;20099;-48
2023/01/30 10:40:01;;;;;;;5.73;2.57;;;26.80;69.20;;;;;;4139182;28;20070;-43
2023/01/30 10:42:42;;;;;;;4.15;2.30;;;26.70;69.20;;;;;;4135747;28;20361;-43
2023/01/30 10:45:19;;;;;;;4.25;2.30;;;26.80;69.20;;;;;;4139860;28;20391;-42
2023/01/30 10:47:56;;;;;;;4.15;2.00;;;26.80;69.20;;;;;;4146643;28;20057;-40
2023/01/30 10:50:26;;;;;;;4.95;2.33;;;26.70;69.00;;;;;;4140830;28;20042;-44
2023/01/30 10:53:25;;;;;;;4.60;2.42;;;26.70;69.00;;;;;;4133038;28;20045;-43
2023/01/30 10:56:25;;;;;;;5.35;2.35;;;26.70;69.00;;;;;;4138917;28;20081;-41
2023/01/30 10:59:06;;;;;;;5.28;2.30;;;26.70;69.00;;;;;;4118772;28;20041;-41
2023/01/30 11:01:47;;;;;;;4.18;2.10;;;26.70;69.10;;;;;;4139913;28;20406;-41
2023/01/30 11:04:28;;;;;;;4.03;2.13;;;26.60;69.10;;;;;;4138247;28;20147;-40
2023/01/30 11:06:52;;;;;;;5.57;2.40;;;26.60;69.10;;;;;;4137554;28;20037;-40
2023/01/30 11:09:17;;;;;;;5.55;2.28;;;26.60;69.10;;;;;;4124667;28;20046;-45
2023/01/30 11:11:52;;;;;;;3.40;1.85;;;26.60;69.10;;;;;;4135263;28;20481;-41
2023/01/30 11:14:14;;;;;;;3.58;1.70;;;26.60;69.10;;;;;;4137111;28;20054;-41
2023/01/30 11:16:53;;;;;;;4.50;2.30;;;26.60;69.00;;;;;;4132213;28;20038;-41
2023/01/30 11:19:22;;;;;;;4.72;2.15;;;26.60;69.00;;;;;;4136073;28;20050;-42
2023/01/30 11:21:50;;;;;;;3.47;1.90;;;26.60;69.10;;;;;;4121764;28;20497;-44
2023/01/30 11:24:19;;;;;;;4.82;2.08;;;26.60;69.00;;;;;;4134561;28;20058;-42
2023/01/30 11:26:41;;;;;;;4.35;2.05;;;26.60;69.00;;;;;;4131838;28;20529;-40
2023/01/30 11:29:29;;;;;;;3.08;1.77;;;26.60;69.00;;;;;;4131125;28;20131;-39
2023/01/30 11:31:52;;;;;;;4.55;1.90;;;26.60;69.00;;;;;;4134977;28;20120;-38
2023/01/30 11:34:17;;;;;;;4.65;2.28;;;26.60;69.00;;;;;;4118557;28;20535;-40
2023/01/30 11:36:39;;;;;;;6.00;2.13;;;26.60;68.90;;;;;;4131103;28;20050;-39
2023/01/30 11:39:19;;;;;;;4.60;2.20;;;26.50;69.00;;;;;;4134413;28;20453;-41
2023/01/30 11:42:02;;;;;;;5.05;2.05;;;26.50;68.80;;;;;;4132696;28;20080;-40
2023/01/30 11:44:29;;;;;;;5.65;2.35;;;26.50;68.90;;;;;;4138099;28;20112;-40
2023/01/30 11:46:51;;;;;;;4.55;1.77;;;26.50;68.90;;;;;;4146388;28;20058;-46
2023/01/30 11:49:17;;;;;;;4.78;2.00;;;26.50;68.90;;;;;;4139676;28;20095;-43
2023/01/30 11:51:43;;;;;;;7.28;2.78;;;26.50;69.10;;;;;;4140052;28;20041;-42
2023/01/30 11:54:27;;;;;;;13.23;2.20;;;26.60;68.80;;;;;;4139221;28;20030;-41
2023/01/30 11:56:55;;;;;;;9.35;2.13;;;26.50;68.80;;;;;;4138149;28;20042;-43
2023/01/30 11:59:35;;;;;;;20.88;3.10;;;26.50;69.00;;;;;;4132949;28;20037;-39
2023/01/30 12:02:22;;;;;;;13.20;2.70;;;26.50;69.10;;;;;;4133818;28;20490;-40
2023/01/30 12:04:46;;;;;;;7.82;2.00;;;26.50;69.10;;;;;;4131643;28;20038;-38
2023/01/30 12:07:21;;;;;;;9.55;2.47;;;26.50;69.10;;;;;;4133390;28;20542;-40
2023/01/30 12:09:44;;;;;;;6.47;2.05;;;26.50;69.10;;;;;;4138343;28;20049;-42
2023/01/30 12:12:26;;;;;;;6.07;2.05;;;26.50;69.00;;;;;;4133824;28;20510;-42
2023/01/30 12:14:51;;;;;;;8.05;2.60;;;26.50;69.00;;;;;;4135676;28;20279;-42
2023/01/30 12:17:43;;;;;;;27.35;4.65;;;26.50;69.10;;;;;;4140126;28;20042;-46
2023/01/30 12:20:11;;;;;;;18.65;3.05;;;26.50;69.40;;;;;;4138088;28;20034;-43
2023/01/30 12:22:58;;;;;;;14.32;3.10;;;26.50;69.40;;;;;;4131406;28;20391;-41
2023/01/30 12:25:26;;;;;;;7.32;2.10;;;26.40;69.40;;;;;;4133838;28;20096;-41
2023/01/30 12:28:15;;;;;;;7.00;2.40;;;26.40;69.50;;;;;;4133269;28;20042;-43
2023/01/30 12:30:50;;;;;;;4.28;2.10;;;26.30;69.40;;;;;;4130262;28;20040;-43
2023/01/30 12:33:15;;;;;;;4.78;2.05;;;26.30;69.50;;;;;;4138665;28;20044;-43
2023/01/30 12:35:59;;;;;;;4.40;2.13;;;26.30;69.50;;;;;;4129887;28;20045;-43
2023/01/30 12:38:30;;;;;;;6.55;2.25;;;26.30;69.60;;;;;;4132049;28;20070;-41
2023/01/30 12:41:15;;;;;;;7.82;2.10;;;26.20;69.50;;;;;;4134801;28;20100;-42
2023/01/30 12:43:41;;;;;;;7.15;2.30;;;26.20;70.10;;;;;;4137465;28;20057;-42
2023/01/30 12:46:33;;;;;;;5.30;2.25;;;26.20;69.40;;;;;;4134584;28;20085;-46
2023/01/30 12:49:22;;;;;;;4.93;2.20;;;26.20;69.30;;;;;;4117593;28;20068;-44
2023/01/30 12:51:58;;;;;;;4.38;2.00;;;26.20;69.40;;;;;;4134658;28;20046;-46
2023/01/30 12:54:37;;;;;;;5.40;2.05;;;26.10;69.40;;;;;;4131178;28;20114;-44
2023/01/30 12:57:36;;;;;;;6.15;2.65;;;26.10;69.40;;;;;;4128178;28;20359;-45